Time;durP1;ratioP1;P1;durP2;ratioP2;P2;SDS_P1;SDS_P2;PMS_P1;PMS_P2;Temp;Humidity;BMP_temperature;BMP_pressure;BME280_temperature;BME280_humidity;BME280_pressure;Samples;Min_cycle;Max_cycle;Signal;HPM_P1;HPM_P2
2022/06/25 00:01:18;;;;;;;4.35;1.95;;;;;;;20.16;63.43;100756.59;4978302;28;20023;-67
2022/06/25 00:03:44;;;;;;;3.55;1.92;;;;;;;20.09;63.99;100762.66;4962770;28;20035;-67
2022/06/25 00:06:09;;;;;;;2.55;1.92;;;;;;;20.14;63.70;100758.88;4952622;28;20042;-67
2022/06/25 00:08:36;;;;;;;4.70;1.90;;;;;;;20.15;63.71;100757.72;4971455;28;20117;-67
2022/06/25 00:11:01;;;;;;;2.00;1.60;;;;;;;20.19;63.52;100769.19;4971854;28;20086;-67
2022/06/25 00:13:27;;;;;;;3.40;2.00;;;;;;;20.16;63.49;100762.22;4971270;28;20027;-67
2022/06/25 00:15:53;;;;;;;3.20;1.83;;;;;;;20.13;63.72;100767.66;4972854;28;20031;-67
2022/06/25 00:18:18;;;;;;;2.72;1.70;;;;;;;20.16;63.55;100776.31;4967064;28;20039;-67
2022/06/25 00:20:45;;;;;;;1.98;1.58;;;;;;;20.08;63.62;100769.47;4971381;28;20556;-67
2022/06/25 00:23:10;;;;;;;3.22;1.58;;;;;;;20.10;63.69;100766.31;4975347;28;20550;-67
2022/06/25 00:25:36;;;;;;;2.58;1.75;;;;;;;20.07;63.64;100767.78;4978974;28;20153;-67
2022/06/25 00:28:02;;;;;;;3.55;2.20;;;;;;;20.04;63.80;100765.63;4975348;28;20498;-67
2022/06/25 00:30:28;;;;;;;3.33;1.65;;;;;;;20.07;63.62;100767.78;4972315;28;20027;-67
2022/06/25 00:32:53;;;;;;;4.32;1.60;;;;;;;20.05;63.88;100772.91;4971897;28;20023;-67
2022/06/25 00:35:19;;;;;;;2.35;1.60;;;;;;;20.01;64.03;100771.06;4968784;28;20042;-67
2022/06/25 00:37:44;;;;;;;2.85;1.83;;;;;;;20.02;63.92;100769.91;4972381;28;20027;-67
2022/06/25 00:40:10;;;;;;;3.20;1.77;;;;;;;19.98;63.99;100774.50;4973962;28;20492;-67
2022/06/25 00:42:36;;;;;;;3.72;1.77;;;;;;;19.93;64.07;100766.19;4989724;28;20081;-67
2022/06/25 00:45:05;;;;;;;2.35;1.80;;;;;;;19.96;64.21;100771.97;4973959;28;20062;-67
2022/06/25 00:47:30;;;;;;;4.43;2.10;;;;;;;20.00;63.97;100764.59;4974204;28;20081;-68
2022/06/25 00:49:55;;;;;;;4.28;1.95;;;;;;;19.99;63.75;100771.34;4969791;28;20035;-66
2022/06/25 00:52:24;;;;;;;2.28;1.88;;;;;;;19.90;63.99;100773.28;4975061;28;20029;-67
2022/06/25 00:54:54;;;;;;;3.42;2.00;;;;;;;19.88;64.37;100780.38;4972387;28;20118;-67
2022/06/25 00:57:25;;;;;;;4.30;2.10;;;;;;;19.82;64.21;100774.84;4972276;28;20023;-67
2022/06/25 00:59:52;;;;;;;4.78;2.10;;;;;;;19.78;64.36;100778.63;4975121;28;20482;-67
2022/06/25 01:02:20;;;;;;;2.72;2.00;;;;;;;19.87;64.18;100779.53;4975655;28;20031;-67
2022/06/25 01:04:46;;;;;;;3.45;2.30;;;;;;;19.84;64.25;100783.81;4973892;28;20038;-67
2022/06/25 01:07:11;;;;;;;3.47;2.08;;;;;;;19.89;64.10;100787.69;4973142;28;20026;-67
2022/06/25 01:09:37;;;;;;;4.57;2.00;;;;;;;19.78;64.20;100790.72;4973620;28;20030;-67
2022/06/25 01:12:03;;;;;;;2.70;2.50;;;;;;;19.66;64.79;100781.16;4995222;28;20018;-67
2022/06/25 01:14:28;;;;;;;3.78;2.40;;;;;;;19.72;64.35;100788.34;4970780;28;20030;-66
2022/06/25 01:16:53;;;;;;;7.60;2.42;;;;;;;19.73;64.46;100787.19;4973519;28;20074;-67
2022/06/25 01:19:19;;;;;;;5.40;2.38;;;;;;;19.73;64.36;100795.63;4975266;28;20038;-67
2022/06/25 01:21:44;;;;;;;4.97;2.30;;;;;;;19.65;64.52;100788.78;4973912;28;20031;-67
2022/06/25 01:24:10;;;;;;;3.67;2.13;;;;;;;19.69;64.42;100800.22;4972209;28;20041;-67
2022/06/25 01:26:39;;;;;;;5.28;2.40;;;;;;;19.68;64.43;100805.03;4974456;28;20042;-67
2022/06/25 01:29:05;;;;;;;4.78;2.35;;;;;;;19.66;64.38;100807.34;4972401;28;20143;-67
2022/06/25 01:31:30;;;;;;;7.45;2.38;;;;;;;19.61;64.54;100801.78;4992664;28;20572;-67
2022/06/25 01:33:56;;;;;;;5.47;2.35;;;;;;;19.62;64.33;100811.94;4994594;28;20040;-67
2022/06/25 01:36:21;;;;;;;7.00;2.70;;;;;;;19.67;64.34;100813.81;4971841;28;20117;-67
2022/06/25 01:38:47;;;;;;;3.75;2.50;;;;;;;19.65;64.29;100816.09;4975395;28;20026;-67
2022/06/25 01:41:12;;;;;;;5.40;2.45;;;;;;;19.64;64.36;100815.25;4975163;28;20503;-67
2022/06/25 01:43:37;;;;;;;2.80;2.20;;;;;;;19.70;64.37;100821.63;4974777;28;20117;-67
2022/06/25 01:46:04;;;;;;;3.55;2.15;;;;;;;19.62;64.09;100823.19;4965275;28;20499;-67
2022/06/25 01:48:29;;;;;;;3.38;2.35;;;;;;;19.55;64.31;100829.22;4953937;28;20114;-67
2022/06/25 01:50:54;;;;;;;5.30;1.98;;;;;;;19.54;64.32;100826.72;4967741;28;20551;-67
2022/06/25 01:53:20;;;;;;;4.30;2.28;;;;;;;19.53;64.17;100830.66;4972311;28;20027;-67
2022/06/25 01:55:45;;;;;;;5.72;3.05;;;;;;;19.48;64.16;100834.41;4973167;28;20359;-67
2022/06/25 01:58:10;;;;;;;7.15;2.60;;;;;;;19.37;64.26;100824.53;4974584;28;20467;-67
2022/06/25 02:00:35;;;;;;;4.72;2.75;;;;;;;19.37;64.25;100833.81;4983773;28;20038;-65
2022/06/25 02:03:01;;;;;;;2.78;2.40;;;;;;;19.40;64.29;100837.97;4972420;28;20070;-65
2022/06/25 02:08:13;;;;;;;5.28;2.60;;;;;;;19.43;64.40;100844.97;4993946;28;20085;-65
2022/06/25 02:10:40;;;;;;;4.85;2.35;;;;;;;19.40;64.29;100846.41;4993764;28;20430;-67
2022/06/25 02:13:05;;;;;;;5.68;2.80;;;;;;;19.41;64.32;100847.25;4976944;28;20504;-67
2022/06/25 02:15:31;;;;;;;3.83;2.60;;;;;;;19.45;64.10;100851.09;4974227;28;20117;-68
2022/06/25 02:17:56;;;;;;;6.93;2.47;;;;;;;19.36;64.26;100849.03;4972837;28;20026;-67
2022/06/25 02:20:21;;;;;;;9.07;2.70;;;;;;;19.39;64.28;100858.84;4971250;28;20113;-67
2022/06/25 02:22:47;;;;;;;4.80;2.92;;;;;;;19.32;64.53;100861.22;4973830;28;20047;-65
2022/06/25 02:25:12;;;;;;;3.47;2.80;;;;;;;19.40;63.91;100863.31;4973488;28;20529;-65
2022/06/25 02:27:37;;;;;;;4.63;2.42;;;;;;;19.33;64.08;100860.06;4981927;28;20175;-65
2022/06/25 02:30:03;;;;;;;6.88;2.65;;;;;;;19.35;64.00;100867.06;4974480;28;20170;-65
2022/06/25 02:32:33;;;;;;;4.53;2.90;;;;;;;19.41;63.78;100862.16;4973426;28;20045;-65
2022/06/25 02:34:58;;;;;;;7.35;2.70;;;;;;;19.33;63.86;100865.69;4965068;28;20446;-65
2022/06/25 02:37:23;;;;;;;3.95;2.78;;;;;;;19.35;63.65;100864.25;4956864;28;20027;-65
2022/06/25 02:39:49;;;;;;;6.47;3.08;;;;;;;19.34;63.64;100876.66;4970907;28;20077;-65
2022/06/25 02:42:14;;;;;;;5.80;2.92;;;;;;;19.28;64.08;100877.88;4986390;28;20053;-65
2022/06/25 02:44:40;;;;;;;5.22;2.55;;;;;;;19.32;63.87;100878.09;4979596;28;20034;-65
2022/06/25 02:47:05;;;;;;;5.50;2.80;;;;;;;19.25;63.83;100875.69;4973389;28;20073;-65
2022/06/25 02:49:30;;;;;;;3.63;2.53;;;;;;;19.30;63.93;100881.25;4973749;28;20062;-65
2022/06/25 02:51:55;;;;;;;4.18;2.42;;;;;;;19.23;64.04;100888.41;4961055;28;20167;-65
2022/06/25 02:54:21;;;;;;;3.33;2.90;;;;;;;19.19;63.97;100890.19;4954426;28;20379;-65
2022/06/25 02:59:30;;;;;;;4.50;2.88;;;;;;;19.15;64.22;100898.41;4992275;28;20069;-65
2022/06/25 03:01:55;;;;;;;7.32;2.75;;;;;;;19.19;64.48;100899.47;4975317;28;20030;-65
2022/06/25 03:04:27;;;;;;;4.50;2.80;;;;;;;19.13;64.26;100895.06;4973327;28;20479;-65
2022/06/25 03:06:52;;;;;;;4.80;3.30;;;;;;;19.12;64.49;100888.59;4966708;28;20046;-65
2022/06/25 03:09:18;;;;;;;4.35;3.75;;;;;;;19.10;64.17;100895.69;4972344;28;20027;-65
2022/06/25 03:11:44;;;;;;;6.05;3.35;;;;;;;19.14;64.32;100896.75;4977547;28;20122;-65
2022/06/25 03:14:09;;;;;;;5.25;3.30;;;;;;;19.14;64.11;100888.31;4988625;28;20125;-65
2022/06/25 03:16:34;;;;;;;5.47;3.42;;;;;;;19.08;64.29;100887.56;4992646;28;20065;-65
2022/06/25 03:19:01;;;;;;;7.47;3.45;;;;;;;19.07;64.20;100897.16;4982736;28;20059;-67
2022/06/25 03:21:26;;;;;;;5.28;3.30;;;;;;;19.03;64.27;100893.28;4977678;28;20036;-67
2022/06/25 03:23:51;;;;;;;8.57;3.50;;;;;;;19.01;64.70;100886.28;4956401;28;20461;-66
2022/06/25 03:26:17;;;;;;;7.97;3.63;;;;;;;19.06;64.35;100897.44;4972888;28;20027;-67
2022/06/25 03:28:42;;;;;;;5.78;3.85;;;;;;;19.02;64.34;100896.38;4988058;28;20470;-66
2022/06/25 03:31:07;;;;;;;6.28;3.65;;;;;;;19.03;64.98;100895.25;4974482;28;20114;-66
2022/06/25 03:33:32;;;;;;;5.93;3.47;;;;;;;18.98;64.70;100899.00;4970660;28;20027;-67
2022/06/25 03:35:58;;;;;;;3.75;3.30;;;;;;;19.03;64.72;100903.72;4972455;28;20553;-66
2022/06/25 03:38:23;;;;;;;5.07;3.35;;;;;;;19.01;64.57;100898.38;4970770;28;20038;-67
2022/06/25 03:40:48;;;;;;;10.38;3.83;;;;;;;19.05;64.84;100910.66;4973045;28;20120;-67
2022/06/25 03:43:13;;;;;;;7.18;3.13;;;;;;;19.02;64.67;100913.25;4980078;28;20040;-67
2022/06/25 03:45:39;;;;;;;4.20;3.33;;;;;;;19.03;64.85;100910.16;4989060;28;20478;-67
2022/06/25 03:48:05;;;;;;;4.03;3.13;;;;;;;19.03;65.14;100906.53;4971098;28;20035;-67
2022/06/25 03:50:30;;;;;;;3.45;3.15;;;;;;;18.98;65.00;100906.59;4970281;28;20068;-66
2022/06/25 03:52:55;;;;;;;6.50;3.28;;;;;;;19.05;65.20;100916.28;4971973;28;20058;-66
2022/06/25 03:55:21;;;;;;;5.32;3.10;;;;;;;19.03;65.28;100909.31;4969113;28;20050;-66
2022/06/25 03:57:46;;;;;;;5.53;2.90;;;;;;;19.00;65.01;100905.16;4964128;28;20457;-66
2022/06/25 04:00:12;;;;;;;6.10;3.35;;;;;;;19.00;65.32;100905.16;4969812;28;20030;-66
2022/06/25 04:02:38;;;;;;;6.30;3.10;;;;;;;19.05;65.00;100909.84;4969043;28;20498;-66
2022/06/25 04:05:03;;;;;;;4.32;2.60;;;;;;;19.08;65.42;100907.25;4969147;28;20113;-66
2022/06/25 04:07:29;;;;;;;4.35;2.92;;;;;;;19.08;65.02;100914.84;4972341;28;20065;-67
2022/06/25 04:09:55;;;;;;;5.10;3.13;;;;;;;19.04;65.16;100914.63;4969492;28;20085;-66
2022/06/25 04:12:20;;;;;;;6.10;3.20;;;;;;;19.04;65.23;100914.63;4968930;28;20038;-67
2022/06/25 04:14:45;;;;;;;7.03;3.15;;;;;;;19.01;65.26;100922.84;4971499;28;20589;-66
2022/06/25 04:17:12;;;;;;;4.88;3.08;;;;;;;18.98;65.34;100917.84;4971552;28;20085;-67
2022/06/25 04:19:41;;;;;;;4.88;2.97;;;;;;;19.00;65.45;100912.75;4971244;28;20524;-67
2022/06/25 04:22:07;;;;;;;4.38;2.72;;;;;;;18.97;65.47;100916.19;4972514;28;20077;-67
2022/06/25 04:24:34;;;;;;;3.60;2.63;;;;;;;18.97;65.60;100921.81;4969647;28;20042;-66
2022/06/25 04:26:59;;;;;;;4.18;2.70;;;;;;;18.99;65.47;100920.34;4970340;28;20030;-66
2022/06/25 04:29:25;;;;;;;4.97;2.95;;;;;;;19.06;65.65;100919.94;4967245;28;20796;-66
2022/06/25 04:31:50;;;;;;;3.17;2.85;;;;;;;19.04;65.56;100914.63;4968260;28;20033;-66
2022/06/25 04:34:15;;;;;;;5.65;2.83;;;;;;;19.04;65.60;100930.69;4971740;28;20513;-66
2022/06/25 04:36:41;;;;;;;3.45;2.95;;;;;;;19.05;65.59;100929.53;4972605;28;20137;-66
2022/06/25 04:39:06;;;;;;;4.30;2.60;;;;;;;19.02;65.86;100927.31;4970498;28;20026;-67
2022/06/25 04:41:32;;;;;;;5.15;3.00;;;;;;;19.08;65.57;100931.72;4971773;28;20541;-67
2022/06/25 04:43:58;;;;;;;4.75;3.08;;;;;;;19.05;65.98;100943.59;4972376;28;20042;-66
2022/06/25 04:46:23;;;;;;;7.60;3.00;;;;;;;19.08;65.68;100937.38;4971173;28;20027;-66
2022/06/25 04:48:49;;;;;;;6.32;3.00;;;;;;;19.10;65.38;100946.34;4978074;28;20077;-67
2022/06/25 04:51:14;;;;;;;3.85;3.08;;;;;;;19.15;65.75;100949.06;4978102;28;20398;-66
2022/06/25 04:53:55;;;;;;;5.45;3.30;;;;;;;19.16;65.93;100947.91;4968302;28;20470;-67
2022/06/25 04:56:24;;;;;;;4.03;2.80;;;;;;;19.26;65.45;100944.09;4971824;28;20023;-67
2022/06/25 04:58:50;;;;;;;6.97;2.88;;;;;;;19.30;65.39;100945.13;4973449;28;20118;-67
2022/06/25 05:01:16;;;;;;;3.53;2.65;;;;;;;19.28;65.57;100947.41;4968947;28;20554;-66
2022/06/25 05:03:41;;;;;;;3.50;2.70;;;;;;;19.26;65.38;100950.56;4979647;28;20031;-66
2022/06/25 05:06:08;;;;;;;4.10;2.80;;;;;;;19.31;65.12;100958.06;4968522;28;20398;-67
2022/06/25 05:08:34;;;;;;;6.38;2.60;;;;;;;19.32;65.32;100952.09;4968234;28;20074;-67
2022/06/25 05:10:59;;;;;;;5.10;2.83;;;;;;;19.27;66.03;100965.44;4970458;28;20034;-67
2022/06/25 05:13:24;;;;;;;4.50;3.03;;;;;;;19.30;65.78;100959.22;4970238;28;20035;-67
2022/06/25 05:15:50;;;;;;;4.82;2.92;;;;;;;19.33;65.91;100956.59;4969832;28;20042;-66
2022/06/25 05:18:15;;;;;;;4.18;2.70;;;;;;;19.27;65.60;100966.28;4972895;28;20054;-67
2022/06/25 05:20:42;;;;;;;3.80;2.92;;;;;;;19.23;65.66;100970.84;4970324;28;20419;-67
2022/06/25 05:23:08;;;;;;;5.22;3.05;;;;;;;19.27;65.53;100968.25;4971520;28;20438;-69
2022/06/25 05:25:34;;;;;;;4.13;2.75;;;;;;;19.31;65.67;100970.16;4975228;28;20035;-66
2022/06/25 05:28:00;;;;;;;4.43;2.80;;;;;;;19.29;65.69;100965.97;4972344;28;20054;-65
2022/06/25 05:30:25;;;;;;;6.05;3.10;;;;;;;19.30;66.06;100973.28;4974025;28;20451;-65
2022/06/25 05:32:50;;;;;;;4.65;2.85;;;;;;;19.34;65.68;100969.53;4976218;28;20371;-65
2022/06/25 05:35:16;;;;;;;4.75;2.90;;;;;;;19.41;65.15;100974.75;4970600;28;20109;-65
2022/06/25 05:37:41;;;;;;;4.55;2.65;;;;;;;19.52;65.16;100981.03;4974358;28;20038;-65
2022/06/25 05:40:07;;;;;;;3.83;2.67;;;;;;;19.56;65.54;100982.06;4973494;28;20081;-65
2022/06/25 05:42:33;;;;;;;4.13;2.78;;;;;;;19.54;65.58;100982.41;4973228;28;20483;-65
2022/06/25 05:44:58;;;;;;;4.95;2.97;;;;;;;19.58;65.09;100985.44;4972837;28;20081;-65
2022/06/25 05:47:24;;;;;;;5.68;3.05;;;;;;;19.60;65.11;100985.94;4982880;28;20039;-65
2022/06/25 05:49:49;;;;;;;6.38;2.78;;;;;;;19.65;65.01;100990.66;4979592;28;20398;-66
2022/06/25 05:52:14;;;;;;;6.18;2.88;;;;;;;19.65;65.04;100988.72;4948738;28;20031;-68
2022/06/25 05:54:40;;;;;;;6.72;2.88;;;;;;;19.65;65.05;100990.66;4943640;29;20031;-66
2022/06/25 05:57:07;;;;;;;4.88;2.83;;;;;;;19.69;64.64;100998.19;4955737;28;20063;-66
2022/06/25 05:59:32;;;;;;;5.85;3.20;;;;;;;19.64;64.72;100998.28;4954332;28;20064;-66
2022/06/25 06:01:58;;;;;;;8.55;3.15;;;;;;;19.62;64.76;101003.41;4953446;28;20035;-65
2022/06/25 06:04:23;;;;;;;7.18;3.35;;;;;;;19.61;64.77;101002.56;4953400;28;20050;-66
2022/06/25 06:06:48;;;;;;;5.25;3.13;;;;;;;19.57;64.88;101007.13;4954488;29;20035;-66
2022/06/25 06:09:13;;;;;;;5.78;3.40;;;;;;;19.65;64.68;101004.75;4935975;28;20043;-66
2022/06/25 06:11:39;;;;;;;6.80;3.67;;;;;;;19.63;64.79;101012.69;4936450;29;20028;-66
2022/06/25 06:14:04;;;;;;;5.90;3.50;;;;;;;19.59;64.94;101006.81;4936115;29;20027;-67
2022/06/25 06:16:29;;;;;;;3.65;2.63;;;;;;;19.64;64.30;101018.00;4948738;28;20110;-66
2022/06/25 06:18:54;;;;;;;9.75;3.50;;;;;;;19.58;64.28;101008.78;4974833;28;20390;-66
2022/06/25 06:21:20;;;;;;;6.68;3.35;;;;;;;19.56;65.24;101013.88;4974419;28;20363;-66
2022/06/25 06:23:45;;;;;;;8.20;3.30;;;;;;;19.64;64.96;101017.16;4946978;28;20031;-67
2022/06/25 06:26:10;;;;;;;8.13;3.30;;;;;;;19.67;64.88;101031.47;4935601;29;20146;-67
2022/06/25 06:28:36;;;;;;;5.38;3.05;;;;;;;19.70;64.80;101024.38;4935624;29;20035;-66
2022/06/25 06:31:01;;;;;;;5.53;2.90;;;;;;;19.69;64.83;101026.38;4943680;28;20045;-66
2022/06/25 06:33:26;;;;;;;7.38;3.38;;;;;;;19.73;64.75;101024.59;4973147;28;20039;-66
2022/06/25 06:35:51;;;;;;;7.57;3.30;;;;;;;19.72;64.33;101033.34;4973851;28;20065;-66
2022/06/25 06:38:17;;;;;;;6.93;3.55;;;;;;;19.71;64.79;101038.13;4973392;28;20352;-66
2022/06/25 06:40:42;;;;;;;7.43;3.05;;;;;;;19.75;64.66;101032.72;4940358;28;20039;-66
2022/06/25 06:43:07;;;;;;;6.28;3.20;;;;;;;19.76;64.93;101031.56;4935520;29;20027;-66
2022/06/25 06:45:33;;;;;;;6.97;3.85;;;;;;;19.82;64.73;101036.81;4934820;29;20032;-66
2022/06/25 06:47:58;;;;;;;5.57;3.53;;;;;;;19.78;65.00;101032.94;4961836;28;20022;-66
2022/06/25 06:50:23;;;;;;;4.22;3.15;;;;;;;19.83;64.35;101038.47;4976550;28;20386;-66
2022/06/25 06:52:49;;;;;;;4.53;2.90;;;;;;;19.86;65.05;101037.03;4992777;28;20034;-66
2022/06/25 06:55:14;;;;;;;4.20;3.25;;;;;;;19.98;64.62;101042.16;4986484;28;20045;-66
2022/06/25 06:57:39;;;;;;;6.65;2.80;;;;;;;20.13;64.60;101039.03;4993136;28;20042;-66
2022/06/25 07:00:06;;;;;;;8.20;3.17;;;;;;;20.17;64.33;101027.97;4992546;28;20034;-66
2022/06/25 07:02:32;;;;;;;3.95;2.80;;;;;;;20.30;64.46;101030.75;4993104;28;20077;-66
2022/06/25 07:04:57;;;;;;;7.10;2.95;;;;;;;20.38;63.15;101031.19;4993037;28;20803;-66
2022/06/25 07:07:23;;;;;;;5.65;3.03;;;;;;;20.42;63.22;101029.41;4982750;28;20036;-66
2022/06/25 07:09:48;;;;;;;4.85;2.47;;;;;;;20.54;62.60;101030.56;4969113;28;20053;-65
2022/06/25 07:12:13;;;;;;;3.22;2.63;;;;;;;20.61;61.86;101029.28;4953083;28;20031;-70
2022/06/25 07:14:39;;;;;;;5.95;2.60;;;;;;;20.88;62.58;101039.69;4958007;28;20031;-68
2022/06/25 07:17:04;;;;;;;7.25;2.83;;;;;;;21.00;61.95;101031.47;4971717;28;20043;-71
2022/06/25 07:19:29;;;;;;;6.85;2.90;;;;;;;21.12;62.04;101045.84;4969421;28;20022;-69
2022/06/25 07:21:55;;;;;;;7.53;2.70;;;;;;;21.21;60.94;101040.28;4976854;28;20065;-69
2022/06/25 07:24:21;;;;;;;5.07;2.65;;;;;;;21.25;60.87;101042.13;4968153;28;20485;-69
2022/06/25 07:26:47;;;;;;;5.45;2.55;;;;;;;21.31;60.12;101049.34;4977498;28;20034;-73
2022/06/25 07:29:12;;;;;;;3.60;2.30;;;;;;;21.29;59.80;101040.34;4981646;28;20031;-71
2022/06/25 07:31:38;;;;;;;3.60;2.53;;;;;;;21.29;60.46;101051.63;4973926;28;20073;-71
2022/06/25 07:34:03;;;;;;;6.65;2.40;;;;;;;21.28;60.20;101049.97;4987313;28;20034;-74
2022/06/25 07:36:28;;;;;;;5.50;2.40;;;;;;;21.26;59.70;101038.19;4991800;28;20034;-72
2022/06/25 07:38:54;;;;;;;5.60;2.22;;;;;;;21.40;60.33;101043.78;4987202;28;20030;-73
2022/06/25 07:41:19;;;;;;;4.10;2.42;;;;;;;21.36;60.48;101039.09;4987002;28;20364;-72
2022/06/25 07:43:45;;;;;;;4.15;2.35;;;;;;;21.37;60.63;101049.22;4968037;28;20174;-73
2022/06/25 07:46:10;;;;;;;5.28;2.70;;;;;;;21.36;60.00;101050.38;4976902;28;20063;-73
2022/06/25 07:48:35;;;;;;;5.03;2.75;;;;;;;21.31;60.32;101051.31;4990666;28;20026;-74
2022/06/25 07:53:45;;;;;;;5.80;2.75;;;;;;;21.18;60.69;101053.06;4988209;28;20132;-72
2022/06/25 07:56:10;;;;;;;4.63;2.05;;;;;;;21.15;60.85;101053.69;4972058;28;20070;-73
2022/06/25 07:58:36;;;;;;;3.22;2.50;;;;;;;21.01;61.48;101048.09;4970033;28;20044;-73
2022/06/25 08:01:02;;;;;;;7.45;2.70;;;;;;;21.02;61.56;101048.91;4973924;28;20037;-74
2022/06/25 08:03:27;;;;;;;5.72;2.15;;;;;;;20.99;61.22;101056.06;4989008;28;20030;-73
2022/06/25 08:05:53;;;;;;;3.33;2.15;;;;;;;21.06;61.11;101047.97;4972584;28;20029;-70
2022/06/25 08:08:18;;;;;;;5.00;2.00;;;;;;;21.12;61.85;101053.50;4970942;28;20556;-70
2022/06/25 08:10:44;;;;;;;3.83;1.98;;;;;;;21.06;61.08;101059.28;4979649;28;20050;-72
2022/06/25 08:13:09;;;;;;;3.70;2.10;;;;;;;21.06;61.18;101047.97;4979580;28;20114;-71
2022/06/25 08:15:35;;;;;;;8.23;2.13;;;;;;;21.08;61.32;101044.81;4972049;28;20027;-73
2022/06/25 08:18:01;;;;;;;8.70;1.98;;;;;;;21.05;61.43;101056.75;4980089;28;20030;-73
2022/06/25 08:20:26;;;;;;;2.50;1.85;;;;;;;21.02;60.55;101060.19;4972404;28;20769;-75
2022/06/25 08:22:52;;;;;;;3.17;1.88;;;;;;;20.98;61.20;101053.53;4971215;28;20483;-75
2022/06/25 08:25:17;;;;;;;2.45;1.80;;;;;;;20.97;61.21;101065.97;4978513;28;20049;-74
2022/06/25 08:27:51;;;;;;;4.93;2.13;;;;;;;20.93;61.75;101059.31;4973382;28;20035;-74
2022/06/25 08:30:18;;;;;;;4.18;1.98;;;;;;;20.91;62.16;101058.81;4968576;28;20034;-74
2022/06/25 08:32:44;;;;;;;8.63;2.08;;;;;;;20.76;61.99;101074.09;4991243;28;20058;-76
2022/06/25 08:35:09;;;;;;;3.42;1.95;;;;;;;20.77;62.44;101056.84;4979603;28;20106;-75
2022/06/25 08:37:39;;;;;;;5.65;2.00;;;;;;;20.82;62.62;101067.16;4969659;28;20172;-75
2022/06/25 08:40:06;;;;;;;2.63;1.50;;;;;;;20.99;62.44;101064.50;4971840;28;20027;-71
2022/06/25 08:42:32;;;;;;;5.40;2.13;;;;;;;21.03;61.66;101059.06;4972814;28;20035;-72
2022/06/25 08:44:57;;;;;;;4.55;2.08;;;;;;;21.10;61.20;101062.25;4971153;28;20039;-69
2022/06/25 08:47:23;;;;;;;6.60;2.40;;;;;;;21.22;61.20;101061.69;4975331;28;20044;-73
2022/06/25 08:49:48;;;;;;;5.60;2.13;;;;;;;21.44;61.03;101058.09;4970051;28;20054;-73
2022/06/25 08:52:16;;;;;;;5.40;2.03;;;;;;;21.53;60.88;101061.78;4968793;28;20047;-72
2022/06/25 08:54:42;;;;;;;5.00;2.30;;;;;;;21.71;60.96;101060.75;4975671;28;20037;-71
2022/06/25 08:57:08;;;;;;;3.55;1.70;;;;;;;21.80;60.42;101057.97;4977879;28;20030;-68
2022/06/25 08:59:34;;;;;;;4.63;1.83;;;;;;;21.86;59.87;101065.16;4969196;28;20067;-68
2022/06/25 09:01:59;;;;;;;5.57;1.90;;;;;;;22.00;60.23;101065.88;4973649;28;20027;-67
2022/06/25 09:04:25;;;;;;;3.35;1.90;;;;;;;21.97;58.59;101060.06;4968682;28;20027;-70
2022/06/25 09:06:50;;;;;;;6.38;1.90;;;;;;;21.89;58.32;101066.50;4970299;28;20066;-69
2022/06/25 09:09:16;;;;;;;3.40;1.85;;;;;;;21.88;59.17;101065.66;4980337;28;20050;-69
2022/06/25 09:11:57;;;;;;;3.08;1.60;;;;;;;21.97;59.58;101071.38;4970835;28;20023;-69
2022/06/25 09:14:33;;;;;;;7.25;1.70;;;;;;;21.99;59.96;101069.06;4975651;28;20027;-66
2022/06/25 09:17:04;;;;;;;2.85;1.90;;;;;;;21.93;59.68;101070.34;4981401;28;20389;-67
2022/06/25 09:19:32;;;;;;;4.10;1.92;;;;;;;21.87;59.98;101069.66;4980083;28;20034;-67
2022/06/25 09:21:59;;;;;;;5.50;1.83;;;;;;;21.81;60.00;101074.63;4975909;28;20050;-66
2022/06/25 09:24:57;;;;;;;6.15;1.67;;;;;;;21.86;60.06;101067.16;4973163;28;20062;-67
2022/06/25 09:27:28;;;;;;;4.97;1.83;;;;;;;21.81;59.69;101074.63;4982087;28;20548;-67
2022/06/25 09:29:54;;;;;;;6.78;1.80;;;;;;;21.86;59.76;101072.81;4980429;28;20050;-69
2022/06/25 09:32:19;;;;;;;4.18;1.58;;;;;;;21.85;59.79;101065.47;4973319;28;20038;-69
2022/06/25 09:34:45;;;;;;;3.25;1.60;;;;;;;21.92;59.65;101065.84;4974324;28;20026;-69
2022/06/25 09:37:20;;;;;;;3.67;1.33;;;;;;;21.94;59.49;101061.56;4973046;28;20039;-69
2022/06/25 09:39:46;;;;;;;5.30;1.77;;;;;;;22.03;59.90;101061.59;4973981;28;20053;-68
2022/06/25 09:42:29;;;;;;;3.22;1.40;;;;;;;22.06;59.64;101066.59;4990729;28;20513;-68
2022/06/25 09:45:05;;;;;;;4.32;1.67;;;;;;;22.10;59.93;101069.59;4975148;28;20494;-68
2022/06/25 09:47:34;;;;;;;4.63;1.50;;;;;;;21.97;58.28;101060.06;4972149;28;20038;-68
2022/06/25 09:50:09;;;;;;;6.03;2.05;;;;;;;21.99;58.89;101063.41;4985464;28;20383;-67
2022/06/25 09:52:36;;;;;;;6.45;1.88;;;;;;;22.02;58.47;101065.56;4993842;28;20026;-68
2022/06/25 09:55:02;;;;;;;5.88;1.70;;;;;;;21.99;57.64;101074.69;4977570;28;20102;-69
2022/06/25 09:57:30;;;;;;;7.75;1.60;;;;;;;21.91;58.17;101073.50;4994053;28;20026;-69
2022/06/25 09:59:58;;;;;;;10.50;2.30;;;;;;;21.83;57.74;101076.28;4992839;28;20492;-68
2022/06/25 10:02:27;;;;;;;6.70;1.60;;;;;;;21.90;57.30;101079.47;4989328;28;20035;-70
2022/06/25 10:04:59;;;;;;;6.97;1.90;;;;;;;21.92;57.71;101077.16;4979739;28;20390;-67
2022/06/25 10:07:59;;;;;;;3.83;1.52;;;;;;;21.97;57.21;101085.50;4983653;28;20506;-69
2022/06/25 10:10:15;;;;;;;3.60;1.33;;;;;;;22.10;57.60;101081.75;4961378;28;20042;-69
2022/06/25 10:12:41;;;;;;;3.30;1.52;;;;;;;22.18;57.65;101077.31;4966296;28;20027;-66
2022/06/25 10:15:07;;;;;;;8.10;2.13;;;;;;;22.23;57.48;101077.16;4962299;28;20394;-66
2022/06/25 10:17:32;;;;;;;4.45;1.70;;;;;;;22.32;57.80;101075.19;4970669;28;20038;-67
2022/06/25 10:19:59;;;;;;;4.80;1.40;;;;;;;22.49;57.30;101080.09;4973479;28;20062;-66
2022/06/25 10:22:24;;;;;;;4.15;1.67;;;;;;;22.65;57.50;101067.16;4971371;28;20524;-68
2022/06/25 10:24:50;;;;;;;3.38;1.67;;;;;;;22.68;55.73;101072.16;4972263;28;20170;-67
2022/06/25 10:27:16;;;;;;;2.67;1.20;;;;;;;22.72;55.61;101061.03;4962352;28;20487;-67
2022/06/25 10:29:52;;;;;;;3.20;1.40;;;;;;;22.81;55.91;101058.19;4965028;28;20372;-64
2022/06/25 10:32:18;;;;;;;1.75;1.25;;;;;;;22.92;55.38;101056.75;4972256;28;20027;-66
2022/06/25 10:34:53;;;;;;;3.63;1.30;;;;;;;23.01;55.41;101049.91;4971368;28;20556;-62
2022/06/25 10:37:19;;;;;;;2.33;1.27;;;;;;;23.12;55.47;101050.41;4968865;28;20045;-68
2022/06/25 10:39:48;;;;;;;4.47;1.30;;;;;;;23.20;55.00;101046.75;4971790;28;20039;-68
2022/06/25 10:45:04;;;;;;;3.25;1.20;;;;;;;23.31;54.90;101058.59;4966794;28;20041;-65
2022/06/25 10:47:48;;;;;;;2.00;0.98;;;;;;;23.32;54.85;101062.25;4967254;28;20542;-66
2022/06/25 10:50:19;;;;;;;1.38;1.00;;;;;;;23.38;53.73;101063.72;4971894;28;20058;-66
2022/06/25 10:53:08;;;;;;;1.33;0.93;;;;;;;23.44;53.93;101059.56;4971907;28;20039;-66
2022/06/25 10:55:41;;;;;;;2.90;1.10;;;;;;;23.35;52.71;101058.75;4964274;28;20062;-66
2022/06/25 10:58:13;;;;;;;1.63;1.05;;;;;;;23.39;52.81;101052.06;4969831;28;20466;-66
2022/06/25 11:00:49;;;;;;;1.75;1.00;;;;;;;23.45;52.83;101056.38;4973475;28;20035;-66
2022/06/25 11:03:15;;;;;;;1.48;1.10;;;;;;;23.52;52.58;101053.03;4972850;28;20030;-66
2022/06/25 11:05:45;;;;;;;1.20;0.70;;;;;;;23.62;53.47;101044.19;4971627;28;20034;-66
2022/06/25 11:08:11;;;;;;;1.50;0.90;;;;;;;23.60;51.27;101046.53;4970592;28;20039;-67
2022/06/25 11:10:38;;;;;;;3.78;0.90;;;;;;;23.57;51.35;101044.34;4979169;28;20037;-66
2022/06/25 11:13:04;;;;;;;1.15;1.05;;;;;;;23.62;51.28;101049.88;4963269;28;20054;-66
2022/06/25 11:15:43;;;;;;;3.17;1.02;;;;;;;23.68;52.45;101050.53;4971322;28;20442;-67
2022/06/25 11:18:13;;;;;;;1.77;1.00;;;;;;;23.65;51.61;101043.50;4975030;28;20027;-66
2022/06/25 11:20:41;;;;;;;2.88;1.10;;;;;;;23.63;51.57;101048.69;4977240;28;20026;-66
2022/06/25 11:23:11;;;;;;;2.60;1.00;;;;;;;23.55;51.55;101058.03;4967817;28;20038;-66
2022/06/25 11:28:53;;;;;;;1.42;1.00;;;;;;;23.46;52.28;101051.53;4961876;28;20054;-66
2022/06/25 11:31:21;;;;;;;1.23;0.95;;;;;;;23.59;52.70;101053.38;4968129;28;20426;-66
2022/06/25 11:33:47;;;;;;;1.83;1.10;;;;;;;23.67;52.03;101058.22;4962222;28;20026;-66
2022/06/25 11:36:13;;;;;;;2.80;1.10;;;;;;;23.58;51.03;101057.38;4974038;28;20023;-66